Time;durP1;ratioP1;P1;durP2;ratioP2;P2;SDS_P1;SDS_P2;PMS_P1;PMS_P2;Temp;Humidity;BMP_temperature;BMP_pressure;BME280_temperature;BME280_humidity;BME280_pressure;Samples;Min_cycle;Max_cycle;Signal;HPM_P1;HPM_P2
2022/06/15 00:01:49;;;;;;;4.78;1.70;;;;;;;13.45;54.85;101099.41;5041185;28;20036;-72
2022/06/15 00:04:14;;;;;;;4.95;2.08;;;;;;;13.41;54.38;101089.69;5044453;28;20076;-72
2022/06/15 00:06:41;;;;;;;5.32;2.05;;;;;;;13.39;54.74;101096.81;5041149;28;20110;-72
2022/06/15 00:09:07;;;;;;;3.72;1.60;;;;;;;13.35;54.80;101101.25;5043620;28;20033;-72
2022/06/15 00:11:37;;;;;;;7.25;1.55;;;;;;;13.31;54.92;101098.66;5041932;28;20123;-72
2022/06/15 00:14:12;;;;;;;4.40;1.38;;;;;;;13.23;55.46;101087.19;5041747;28;20117;-72
2022/06/15 00:16:37;;;;;;;4.75;1.38;;;;;;;13.14;55.30;101096.97;5038668;28;20037;-72
2022/06/15 00:19:04;;;;;;;4.25;1.42;;;;;;;13.11;55.24;101097.00;5044734;28;20048;-72
2022/06/15 00:21:30;;;;;;;4.47;1.30;;;;;;;13.08;55.45;101099.66;5043560;28;20029;-72
2022/06/15 00:23:57;;;;;;;5.03;1.75;;;;;;;13.05;55.47;101099.69;5043662;28;20037;-72
2022/06/15 00:26:23;;;;;;;3.13;1.10;;;;;;;13.03;55.97;101098.81;5040201;28;20071;-72
2022/06/15 00:28:49;;;;;;;2.47;1.15;;;;;;;12.98;55.90;101087.38;5043857;28;20033;-72
2022/06/15 00:31:14;;;;;;;4.97;1.80;;;;;;;12.96;56.29;101089.16;5039953;28;20402;-72
2022/06/15 00:33:40;;;;;;;4.38;1.73;;;;;;;12.91;56.28;101096.25;5042174;28;20611;-72
2022/06/15 00:36:11;;;;;;;6.03;1.60;;;;;;;12.87;56.37;101086.59;5043124;28;20111;-72
2022/06/15 00:38:43;;;;;;;5.07;1.42;;;;;;;12.86;56.80;101092.75;5039350;28;20040;-72
2022/06/15 00:41:14;;;;;;;8.43;1.60;;;;;;;12.84;56.31;101092.78;5039752;28;20040;-72
2022/06/15 00:43:48;;;;;;;3.58;1.17;;;;;;;12.82;56.77;101091.03;5043181;28;20495;-72
2022/06/15 00:46:40;;;;;;;4.60;1.10;;;;;;;12.79;56.95;101091.06;5037566;28;20091;-72
2022/06/15 00:49:14;;;;;;;5.80;1.45;;;;;;;12.70;57.17;101086.66;5037873;28;20033;-72
2022/06/15 00:51:41;;;;;;;5.40;1.70;;;;;;;12.63;57.17;101090.28;5040203;28;20108;-72
2022/06/15 00:54:07;;;;;;;5.68;2.00;;;;;;;12.60;57.33;101091.16;5043583;28;20037;-72
2022/06/15 00:56:35;;;;;;;6.40;1.50;;;;;;;12.59;57.71;101088.50;5040398;28;20098;-72
2022/06/15 00:59:07;;;;;;;4.82;1.92;;;;;;;12.54;57.25;101092.94;5033319;28;20104;-72
2022/06/15 01:01:33;;;;;;;4.22;1.30;;;;;;;12.49;57.77;101099.13;5040545;28;20479;-72
2022/06/15 01:04:00;;;;;;;3.78;1.30;;;;;;;12.46;57.86;101098.28;5040104;28;20041;-72
2022/06/15 01:06:38;;;;;;;5.03;1.83;;;;;;;12.43;58.13;101098.31;5036955;28;20515;-72
2022/06/15 01:09:19;;;;;;;5.53;1.73;;;;;;;12.35;58.49;101094.81;5040724;28;20037;-72
2022/06/15 01:12:00;;;;;;;5.10;1.38;;;;;;;12.27;58.82;101082.47;5038324;28;20120;-72
2022/06/15 01:14:41;;;;;;;4.78;1.88;;;;;;;12.23;58.83;101080.72;5037008;28;20033;-72
2022/06/15 01:17:31;;;;;;;7.63;2.20;;;;;;;12.21;58.82;101081.66;5039006;28;20070;-72
2022/06/15 01:20:05;;;;;;;7.10;2.08;;;;;;;12.15;58.44;101087.81;5042400;28;20495;-71
2022/06/15 01:22:39;;;;;;;5.82;1.90;;;;;;;12.11;59.17;101079.91;5037524;28;20037;-72
2022/06/15 01:25:42;;;;;;;6.40;1.83;;;;;;;12.12;59.89;101079.91;5039131;28;20037;-72
2022/06/15 01:28:29;;;;;;;6.60;1.83;;;;;;;12.12;59.63;101082.53;5037638;28;20604;-72
2022/06/15 01:31:17;;;;;;;4.35;1.45;;;;;;;12.12;59.61;101074.59;5036044;28;20507;-72
2022/06/15 01:34:03;;;;;;;6.32;1.23;;;;;;;12.11;59.65;101077.28;5036024;28;20033;-72
2022/06/15 01:36:54;;;;;;;6.82;2.03;;;;;;;12.07;59.50;101066.69;5041295;28;20496;-72
2022/06/15 01:39:28;;;;;;;4.75;1.50;;;;;;;12.03;60.04;101069.38;5031649;28;20075;-72
2022/06/15 01:42:09;;;;;;;5.22;1.98;;;;;;;11.97;59.93;101067.63;5039142;28;20052;-72
2022/06/15 01:44:39;;;;;;;4.93;2.00;;;;;;;11.93;60.14;101064.97;5036912;28;20108;-71
2022/06/15 01:47:10;;;;;;;6.50;1.73;;;;;;;11.84;60.09;101058.81;5041222;28;20079;-72
2022/06/15 01:49:42;;;;;;;5.68;1.55;;;;;;;11.83;59.78;101056.16;5041048;28;20549;-72
2022/06/15 01:52:13;;;;;;;4.78;1.70;;;;;;;11.82;60.03;101057.06;5039901;28;20435;-72
2022/06/15 01:54:44;;;;;;;5.93;1.30;;;;;;;11.76;61.00;101055.31;5039218;28;20029;-72
2022/06/15 01:57:13;;;;;;;7.80;1.65;;;;;;;11.71;60.80;101057.09;5041325;28;20235;-72
2022/06/15 01:59:54;;;;;;;5.07;1.80;;;;;;;11.68;61.29;101046.50;5038951;28;20030;-72
2022/06/15 02:02:27;;;;;;;4.53;1.38;;;;;;;11.70;60.65;101038.56;5037464;28;20179;-72
2022/06/15 02:05:15;;;;;;;6.10;1.65;;;;;;;11.69;60.75;101039.47;5040270;28;20033;-72
2022/06/15 02:07:48;;;;;;;6.50;1.75;;;;;;;11.60;60.51;101042.97;5051165;28;20045;-72
2022/06/15 02:10:44;;;;;;;6.45;1.90;;;;;;;11.58;60.74;101036.81;5039890;28;20039;-71
2022/06/15 02:13:18;;;;;;;4.30;1.73;;;;;;;11.55;61.50;101042.13;5040526;28;20037;-72
2022/06/15 02:15:48;;;;;;;4.93;1.45;;;;;;;11.46;61.24;101042.16;5032841;28;20025;-72
2022/06/15 02:18:17;;;;;;;4.22;1.52;;;;;;;11.34;61.24;101035.09;5038196;28;20068;-72
2022/06/15 02:20:49;;;;;;;6.95;2.08;;;;;;;11.17;62.33;101040.41;5047973;28;20404;-72
2022/06/15 02:23:17;;;;;;;6.53;1.73;;;;;;;11.01;63.21;101044.81;5039327;28;20033;-71
2022/06/15 02:25:49;;;;;;;7.53;2.30;;;;;;;10.88;63.29;101038.66;5040417;28;20033;-72
2022/06/15 02:28:16;;;;;;;;;;;;;;;10.79;64.19;101038.63;5034535;28;20138;-72
2022/06/15 02:30:44;;;;;;;4.38;1.60;;;;;;;10.76;63.13;101043.91;5039872;28;20399;-72
2022/06/15 02:33:12;;;;;;;4.10;1.20;;;;;;;10.77;63.12;101045.69;5040278;28;20044;-71
2022/06/15 02:35:39;;;;;;;6.18;1.38;;;;;;;10.76;64.05;101043.91;5039799;28;20122;-71
2022/06/15 02:38:07;;;;;;;5.10;1.58;;;;;;;10.74;64.35;101040.38;5040915;28;20395;-72
2022/06/15 02:40:32;;;;;;;4.93;1.63;;;;;;;10.71;64.52;101040.38;5038258;28;20037;-72
2022/06/15 02:43:00;;;;;;;5.05;1.50;;;;;;;10.70;64.36;101036.88;5040468;28;20055;-72
2022/06/15 02:45:31;;;;;;;5.13;1.50;;;;;;;10.66;64.54;101034.22;5040025;28;20040;-72
2022/06/15 02:47:58;;;;;;;4.05;1.48;;;;;;;10.58;65.13;101033.31;5037312;28;20582;-72
2022/06/15 02:50:29;;;;;;;7.38;2.28;;;;;;;10.53;65.48;101033.31;5040480;28;20056;-72
2022/06/15 02:53:08;;;;;;;4.93;1.38;;;;;;;10.44;66.24;101031.53;5038744;28;20504;-72
2022/06/15 02:55:35;;;;;;;6.55;1.92;;;;;;;10.44;65.61;101031.53;5039173;28;20488;-72
2022/06/15 02:58:05;;;;;;;5.22;1.50;;;;;;;10.49;65.56;101024.50;5043484;28;20032;-72
2022/06/15 03:00:38;;;;;;;4.93;1.60;;;;;;;10.55;65.72;101030.69;5044458;28;20029;-72
2022/06/15 03:03:04;;;;;;;3.92;1.42;;;;;;;10.60;64.96;101035.09;5020689;28;20034;-72
2022/06/15 03:05:30;;;;;;;7.18;1.83;;;;;;;10.63;64.99;101036.84;5041977;28;20041;-72
2022/06/15 03:07:55;;;;;;;6.78;1.75;;;;;;;10.65;65.16;101030.69;5042887;28;20094;-72
2022/06/15 03:10:21;;;;;;;6.60;3.03;;;;;;;10.71;64.74;101035.97;5039414;28;20036;-72
2022/06/15 03:12:46;;;;;;;7.60;2.47;;;;;;;10.76;64.49;101038.63;5042336;28;20057;-72
2022/06/15 03:15:12;;;;;;;7.68;2.40;;;;;;;10.83;64.78;101035.13;5044433;28;20068;-72
2022/06/15 03:17:38;;;;;;;3.95;1.80;;;;;;;10.86;64.23;101034.25;5038498;28;20068;-72
2022/06/15 03:20:07;;;;;;;5.80;1.92;;;;;;;10.86;64.40;101040.41;5043226;28;20033;-72
2022/06/15 03:22:34;;;;;;;5.85;1.75;;;;;;;10.89;64.56;101037.75;5041887;28;20472;-72
2022/06/15 03:25:04;;;;;;;7.43;2.03;;;;;;;10.93;64.66;101042.16;5040762;28;20064;-72
2022/06/15 03:27:31;;;;;;;6.97;3.90;;;;;;;11.01;63.94;101043.94;5039427;28;20029;-72
2022/06/15 03:30:00;;;;;;;8.07;4.32;;;;;;;11.12;63.79;101053.63;5042937;28;20040;-71
2022/06/15 03:32:30;;;;;;;9.23;3.75;;;;;;;11.21;63.42;101044.78;5042231;28;20488;-72
2022/06/15 03:34:59;;;;;;;5.95;2.83;;;;;;;11.28;63.05;101043.03;5040109;28;20083;-72
2022/06/15 03:37:26;;;;;;;8.77;2.75;;;;;;;11.35;63.36;101037.75;5043286;28;20043;-72
2022/06/15 03:40:02;;;;;;;5.43;1.80;;;;;;;11.44;62.81;101046.56;5042114;28;20040;-71
2022/06/15 03:42:31;;;;;;;4.38;1.75;;;;;;;11.49;62.95;101048.28;5039671;28;20025;-71
2022/06/15 03:44:57;;;;;;;6.53;3.38;;;;;;;11.55;62.72;101048.31;5043097;28;20052;-72
2022/06/15 03:47:30;;;;;;;7.18;3.38;;;;;;;11.61;62.94;101044.78;5042088;28;20029;-72
2022/06/15 03:49:56;;;;;;;5.32;2.15;;;;;;;11.62;62.16;101043.88;5040636;28;20400;-72
2022/06/15 03:52:25;;;;;;;4.75;1.90;;;;;;;11.68;62.41;101049.13;5042690;28;20033;-72
2022/06/15 03:54:51;;;;;;;8.95;1.80;;;;;;;11.74;62.52;101038.56;5037294;28;20033;-71
2022/06/15 03:57:18;;;;;;;8.65;3.30;;;;;;;11.83;62.33;101043.81;5031651;28;20037;-72
2022/06/15 03:59:44;;;;;;;6.25;3.58;;;;;;;11.88;61.99;101040.31;5041027;28;20411;-72
2022/06/15 04:02:28;;;;;;;8.25;3.08;;;;;;;12.02;61.55;101046.41;5039484;28;20048;-72
2022/06/15 04:04:56;;;;;;;7.82;2.13;;;;;;;12.09;61.97;101042.88;5040528;28;20037;-72
2022/06/15 04:10:06;;;;;;;6.72;3.63;;;;;;;12.27;61.03;101032.19;5024855;28;20083;-72
2022/06/15 04:12:32;;;;;;;5.53;3.58;;;;;;;12.37;60.96;101032.16;5039612;28;20025;-72
2022/06/15 04:14:57;;;;;;;6.82;3.75;;;;;;;12.49;60.87;101027.66;5043105;28;20036;-71
2022/06/15 04:17:29;;;;;;;7.93;4.20;;;;;;;12.58;60.99;101024.09;5040540;28;20139;-72
2022/06/15 04:22:54;;;;;;;9.90;4.30;;;;;;;12.83;60.32;101018.59;5040825;28;20036;-72
2022/06/15 04:25:19;;;;;;;11.45;5.60;;;;;;;12.96;59.90;101016.75;5034190;28;20033;-72
2022/06/15 04:27:46;;;;;;;5.45;2.88;;;;;;;13.04;59.69;101020.19;5042374;28;20028;-72
2022/06/15 04:30:13;;;;;;;6.55;2.42;;;;;;;13.10;59.83;101022.81;5040849;28;20034;-72
2022/06/15 04:32:42;;;;;;;5.95;2.28;;;;;;;13.18;60.09;101012.13;5031380;28;20440;-72
2022/06/15 04:35:09;;;;;;;8.27;2.33;;;;;;;13.26;60.22;101018.25;5042285;28;20123;-72
2022/06/15 04:37:40;;;;;;;5.72;2.22;;;;;;;13.33;59.63;101025.28;5035855;28;20087;-72
2022/06/15 04:40:20;;;;;;;7.50;2.78;;;;;;;13.38;59.17;101023.44;5039557;28;20124;-72
2022/06/15 04:42:45;;;;;;;7.68;2.38;;;;;;;13.44;59.35;101018.13;5043178;28;20127;-72
2022/06/15 04:45:13;;;;;;;7.85;2.40;;;;;;;13.56;59.31;101027.69;5041042;28;20492;-72
2022/06/15 04:47:51;;;;;;;7.82;3.70;;;;;;;13.71;58.89;101016.94;5039318;28;20117;-72
2022/06/15 04:50:17;;;;;;;6.85;2.90;;;;;;;13.88;58.45;101018.50;5042142;28;20072;-72
2022/06/15 04:52:46;;;;;;;6.50;1.83;;;;;;;14.00;58.34;101023.66;5039329;28;20030;-71
2022/06/15 04:55:15;;;;;;;5.50;1.77;;;;;;;14.08;58.35;101015.59;5040806;28;20042;-72
2022/06/15 04:57:42;;;;;;;8.68;1.80;;;;;;;14.16;58.36;101008.41;5041884;28;20036;-72
2022/06/15 05:00:12;;;;;;;6.70;1.85;;;;;;;14.18;58.52;101006.63;5038687;28;20052;-71
2022/06/15 05:02:38;;;;;;;5.80;2.00;;;;;;;14.20;58.49;101000.41;5040420;28;20531;-72
2022/06/15 05:05:04;;;;;;;5.65;2.78;;;;;;;14.30;58.14;101010.88;5040034;28;20120;-72
2022/06/15 05:07:29;;;;;;;5.70;2.72;;;;;;;14.34;57.92;101002.84;5041110;28;20040;-72
2022/06/15 05:09:56;;;;;;;6.85;2.00;;;;;;;14.36;58.00;101009.03;5041578;28;20071;-72
2022/06/15 05:12:22;;;;;;;6.20;1.98;;;;;;;14.37;57.91;101008.13;5037866;28;20052;-72
2022/06/15 05:14:48;;;;;;;5.80;1.90;;;;;;;14.47;57.81;101011.53;5041624;28;20519;-71
2022/06/15 05:17:15;;;;;;;5.93;2.55;;;;;;;14.62;57.52;101015.78;5039118;28;20041;-72
2022/06/15 05:19:41;;;;;;;6.82;2.35;;;;;;;14.71;57.30;101010.31;5039681;28;20082;-72
2022/06/15 05:22:07;;;;;;;4.88;2.10;;;;;;;14.80;57.12;101018.16;5040516;28;20040;-72
2022/06/15 05:24:35;;;;;;;8.27;3.90;;;;;;;14.96;56.55;101007.25;5038496;28;20124;-72
2022/06/15 05:27:04;;;;;;;5.80;2.15;;;;;;;15.08;56.65;101007.06;5041034;28;20036;-72
2022/06/15 05:29:30;;;;;;;7.20;3.15;;;;;;;15.19;56.45;101007.72;5039852;28;20503;-72
2022/06/15 05:32:07;;;;;;;6.70;3.33;;;;;;;15.30;56.04;101008.44;5037620;28;20527;-72
2022/06/15 05:34:34;;;;;;;6.97;3.13;;;;;;;15.43;55.74;101010.84;5040931;28;20136;-72
2022/06/15 05:37:02;;;;;;;5.63;2.10;;;;;;;15.50;55.69;101012.50;5037429;28;20033;-72
2022/06/15 05:39:31;;;;;;;6.70;2.35;;;;;;;15.61;55.16;101018.50;5040847;28;20033;-72
2022/06/15 05:41:57;;;;;;;7.10;5.10;;;;;;;15.74;54.94;101013.84;5037794;28;20033;-72
2022/06/15 05:45:05;;;;;;;6.90;2.83;;;;;;;15.84;54.78;101009.22;5041556;28;20132;-72
2022/06/15 05:47:12;;;;;;;6.18;2.25;;;;;;;15.93;54.22;101015.25;5041082;28;20041;-72
2022/06/15 05:49:42;;;;;;;4.10;1.90;;;;;;;16.01;54.05;101017.75;5039022;28;20098;-72
2022/06/15 05:52:10;;;;;;;6.97;2.28;;;;;;;16.11;53.91;101010.41;5038778;28;20040;-72
2022/06/15 05:54:38;;;;;;;8.10;2.65;;;;;;;16.17;53.80;101008.50;5041232;28;20606;-72
2022/06/15 05:57:24;;;;;;;7.38;3.83;;;;;;;16.32;53.52;101006.41;5039268;28;20120;-72
2022/06/15 05:59:51;;;;;;;6.22;2.78;;;;;;;16.47;52.95;101011.41;5039367;28;20048;-72
2022/06/15 06:02:19;;;;;;;6.43;2.58;;;;;;;16.57;52.50;101006.75;5034857;28;20025;-72
2022/06/15 06:04:44;;;;;;;8.85;2.28;;;;;;;16.70;52.33;101004.66;5023592;28;20051;-73
2022/06/15 06:07:11;;;;;;;6.75;3.45;;;;;;;16.91;52.08;101004.16;5040977;28;20089;-72
2022/06/15 06:09:36;;;;;;;7.15;3.13;;;;;;;17.03;51.23;101003.88;5039136;28;20502;-72
2022/06/15 06:12:02;;;;;;;8.18;4.03;;;;;;;17.18;50.93;101001.72;5040308;28;20033;-72
2022/06/15 06:14:28;;;;;;;8.20;3.67;;;;;;;17.32;50.71;101007.59;5039190;28;20037;-72
2022/06/15 06:16:53;;;;;;;6.10;2.50;;;;;;;17.38;50.50;101017.22;5042074;28;20047;-72
2022/06/15 06:19:18;;;;;;;6.28;2.17;;;;;;;17.47;50.10;101017.81;5036668;28;20083;-72
2022/06/15 06:21:44;;;;;;;5.57;2.42;;;;;;;17.55;49.98;101019.41;5040669;28;20079;-72
2022/06/15 06:24:11;;;;;;;5.50;1.88;;;;;;;17.62;49.51;101019.19;5035230;28;20403;-72
2022/06/15 06:26:36;;;;;;;5.72;1.60;;;;;;;17.68;49.53;101023.50;5039693;28;20047;-72
2022/06/15 06:29:03;;;;;;;4.63;2.03;;;;;;;17.80;49.21;101009.84;5041604;28;20116;-72
2022/06/15 06:31:29;;;;;;;4.82;1.85;;;;;;;17.88;48.77;101009.63;5043888;28;20095;-72
2022/06/15 06:33:55;;;;;;;6.55;2.70;;;;;;;17.99;48.76;101014.66;5043833;28;20029;-72
2022/06/15 06:36:34;;;;;;;6.60;3.05;;;;;;;18.11;48.66;101011.63;5044440;28;20061;-72
2022/06/15 06:39:02;;;;;;;9.13;3.40;;;;;;;18.23;48.11;101003.22;5039810;28;20038;-72
2022/06/15 06:41:30;;;;;;;7.18;3.72;;;;;;;18.31;48.12;101003.91;5043029;28;20090;-73
2022/06/15 06:43:55;;;;;;;4.82;2.28;;;;;;;18.33;47.97;101007.38;5045101;28;20040;-73
2022/06/15 06:46:21;;;;;;;9.93;4.55;;;;;;;18.47;48.16;101006.06;5036695;28;20033;-72
2022/06/15 06:48:47;;;;;;;7.47;3.90;;;;;;;18.62;47.63;101008.25;5041846;28;20388;-72
2022/06/15 06:51:13;;;;;;;7.38;4.47;;;;;;;18.75;47.49;101006.97;5043664;28;20056;-72
2022/06/15 06:53:39;;;;;;;8.35;3.13;;;;;;;18.83;47.03;101010.25;5043750;28;20072;-72
2022/06/15 06:56:08;;;;;;;7.95;3.92;;;;;;;18.97;47.31;101009.84;5044284;28;20033;-73
2022/06/15 06:58:34;;;;;;;5.45;2.25;;;;;;;18.99;46.70;101001.75;5045062;28;20075;-73
2022/06/15 07:00:59;;;;;;;6.53;3.10;;;;;;;19.09;46.75;101005.84;5040672;28;20160;-73
2022/06/15 07:03:25;;;;;;;6.72;2.95;;;;;;;19.21;46.37;101000.09;5038728;28;20052;-72
2022/06/15 07:05:51;;;;;;;6.28;3.65;;;;;;;19.32;46.71;101004.19;5045389;28;20702;-72
2022/06/15 07:08:16;;;;;;;6.00;2.58;;;;;;;19.39;46.38;101003.06;5043691;28;20029;-72
2022/06/15 07:10:43;;;;;;;7.75;3.60;;;;;;;19.51;46.03;100997.25;5043551;28;20033;-72
2022/06/15 07:13:08;;;;;;;7.20;3.70;;;;;;;19.68;45.66;101000.25;5044641;28;20466;-73
2022/06/15 07:15:34;;;;;;;7.05;2.95;;;;;;;19.81;45.60;100994.44;5046190;28;20124;-72
2022/06/15 07:18:01;;;;;;;7.25;2.70;;;;;;;19.83;45.04;100995.25;5038071;28;20037;-72
2022/06/15 07:20:27;;;;;;;6.40;3.00;;;;;;;19.99;45.33;101001.78;5044676;28;20033;-72
2022/06/15 07:22:53;;;;;;;5.05;2.97;;;;;;;20.10;44.68;100991.53;5043053;28;20037;-72
2022/06/15 07:25:18;;;;;;;4.68;2.80;;;;;;;20.20;44.83;100988.47;5043237;28;20045;-73
2022/06/15 07:27:44;;;;;;;7.72;1.70;;;;;;;20.27;43.96;100980.16;5044752;28;20395;-72
2022/06/15 07:30:13;;;;;;;11.38;3.30;;;;;;;20.36;44.18;100981.59;5041966;28;20476;-72
2022/06/15 07:32:40;;;;;;;7.93;3.72;;;;;;;20.51;43.91;100974.75;5043592;28;20052;-73
2022/06/15 07:35:10;;;;;;;5.47;1.70;;;;;;;20.60;43.71;100976.22;5043324;28;20041;-72
2022/06/15 07:37:36;;;;;;;4.82;2.00;;;;;;;20.68;43.25;100984.84;5042422;28;20037;-73
2022/06/15 07:40:01;;;;;;;4.95;2.10;;;;;;;20.75;43.01;100979.16;5040401;28;20480;-72
2022/06/15 07:42:26;;;;;;;8.82;2.25;;;;;;;20.83;42.79;100980.63;5044389;28;20491;-73
2022/06/15 07:44:52;;;;;;;5.57;2.20;;;;;;;20.83;42.86;100980.63;5042076;28;20052;-72
2022/06/15 07:50:02;;;;;;;7.57;2.40;;;;;;;21.08;42.29;100975.09;5038575;28;20119;-72
2022/06/15 07:52:37;;;;;;;5.03;2.47;;;;;;;21.27;41.68;100976.03;5042850;28;20452;-73
2022/06/15 07:55:05;;;;;;;8.27;2.72;;;;;;;21.39;41.53;100974.69;5044566;28;20033;-72
2022/06/15 07:57:30;;;;;;;5.28;1.77;;;;;;;21.44;41.81;100970.84;5037390;28;20042;-73
2022/06/15 07:59:56;;;;;;;5.20;1.55;;;;;;;21.56;41.54;100979.28;5044069;28;20048;-72
2022/06/15 08:02:22;;;;;;;7.93;3.10;;;;;;;21.66;41.02;100972.56;5041960;28;20045;-72
2022/06/15 08:04:47;;;;;;;5.20;2.35;;;;;;;21.77;39.91;100969.38;5042503;28;20043;-72
2022/06/15 08:07:15;;;;;;;6.07;2.08;;;;;;;21.86;39.88;100959.09;5043718;28;20123;-72
2022/06/15 08:09:41;;;;;;;7.25;3.58;;;;;;;22.02;40.63;100964.63;5041287;28;20037;-73
2022/06/15 08:12:18;;;;;;;9.07;4.25;;;;;;;22.21;39.54;100963.78;5043391;28;20095;-72
2022/06/15 08:14:59;;;;;;;6.78;3.40;;;;;;;22.35;38.78;100955.06;5043638;28;20033;-72
2022/06/15 08:17:43;;;;;;;6.32;3.20;;;;;;;22.47;38.12;100949.94;5034116;28;20416;-73
2022/06/15 08:20:12;;;;;;;8.00;3.78;;;;;;;22.61;38.15;100954.66;5038265;28;20559;-72
2022/06/15 08:22:40;;;;;;;8.52;3.90;;;;;;;22.73;37.96;100954.03;5036830;28;20060;-73
2022/06/15 08:25:08;;;;;;;4.78;1.90;;;;;;;22.81;37.58;100950.97;5040551;28;20033;-73
2022/06/15 08:27:35;;;;;;;5.18;2.92;;;;;;;22.88;37.54;100943.47;5044139;28;20153;-72
2022/06/15 08:30:02;;;;;;;6.35;2.58;;;;;;;23.05;37.42;100945.31;5041301;28;20041;-73
2022/06/15 08:32:28;;;;;;;6.30;2.40;;;;;;;23.17;36.24;100942.00;5041762;28;20044;-72
2022/06/15 08:34:53;;;;;;;6.65;2.20;;;;;;;23.19;35.71;100940.09;5041966;28;20041;-73
2022/06/15 08:37:19;;;;;;;6.28;2.10;;;;;;;23.24;35.66;100931.75;5043251;28;20047;-73
2022/06/15 08:39:44;;;;;;;10.80;4.55;;;;;;;23.38;35.99;100930.09;5040879;28;20041;-73
2022/06/15 08:42:45;;;;;;;6.28;3.78;;;;;;;23.57;34.68;100935.34;5043215;28;20032;-72
2022/06/15 08:45:35;;;;;;;3.55;1.23;;;;;;;23.58;33.54;100938.94;5039456;28;20553;-72
2022/06/15 08:48:14;;;;;;;5.32;2.33;;;;;;;23.69;34.02;100925.75;5039677;28;20037;-73
2022/06/15 08:51:11;;;;;;;5.10;1.90;;;;;;;23.80;33.53;100927.88;5034819;28;20045;-73
2022/06/15 08:54:07;;;;;;;4.30;1.33;;;;;;;23.88;32.31;100919.38;5041228;28;20559;-72
2022/06/15 08:56:45;;;;;;;6.35;2.20;;;;;;;24.00;33.07;100916.00;5031913;28;20052;-73
2022/06/15 08:59:31;;;;;;;4.28;1.50;;;;;;;24.03;33.56;100927.47;5037443;28;20056;-72
2022/06/15 09:02:25;;;;;;;3.60;1.30;;;;;;;24.10;31.65;100921.72;5035778;28;20030;-73
2022/06/15 09:05:06;;;;;;;14.32;2.45;;;;;;;24.09;32.07;100926.25;5037659;28;20072;-73
2022/06/15 09:08:05;;;;;;;7.00;1.73;;;;;;;24.19;32.89;100908.59;5040067;28;20429;-73
2022/06/15 09:10:48;;;;;;;7.10;2.13;;;;;;;24.41;32.19;100910.91;5028914;28;20408;-73
2022/06/15 09:13:47;;;;;;;4.90;1.40;;;;;;;24.33;31.72;100912.31;5035918;28;20385;-73
2022/06/15 09:16:39;;;;;;;3.65;0.93;;;;;;;24.22;32.18;100907.56;5038734;28;20033;-72
2022/06/15 09:19:13;;;;;;;3.95;1.20;;;;;;;24.24;32.30;100909.22;5039149;28;20033;-72
2022/06/15 09:21:49;;;;;;;4.88;1.90;;;;;;;24.37;32.21;100903.97;5039189;28;20037;-73
2022/06/15 09:24:21;;;;;;;3.78;1.05;;;;;;;24.60;30.91;100901.78;5041629;28;20495;-73
2022/06/15 09:26:56;;;;;;;5.45;2.05;;;;;;;24.68;31.95;100899.50;5042979;28;20032;-73
2022/06/15 09:29:25;;;;;;;5.03;2.03;;;;;;;24.89;31.61;100898.25;5038192;28;20040;-72
2022/06/15 09:31:57;;;;;;;4.68;1.30;;;;;;;24.82;29.99;100896.84;5039576;28;20041;-73
2022/06/15 09:34:37;;;;;;;3.03;1.00;;;;;;;24.84;29.94;100902.19;5039287;28;20040;-73
2022/06/15 09:37:10;;;;;;;5.03;1.55;;;;;;;24.70;29.63;100892.19;5040498;28;20033;-72
2022/06/15 09:39:36;;;;;;;4.95;1.15;;;;;;;24.61;30.36;100903.53;5035989;28;20049;-72
2022/06/15 09:42:05;;;;;;;4.65;1.48;;;;;;;24.75;30.91;100898.19;5041217;28;20033;-73
2022/06/15 09:44:47;;;;;;;4.15;1.75;;;;;;;25.14;30.83;100902.13;5041696;28;20492;-72
2022/06/15 09:47:37;;;;;;;5.57;2.42;;;;;;;25.49;29.71;100889.19;5037566;28;20377;-73
2022/06/15 09:50:38;;;;;;;3.58;2.10;;;;;;;25.68;28.66;100890.72;5037235;28;20045;-73
2022/06/15 09:53:29;;;;;;;5.75;1.40;;;;;;;25.71;27.62;100883.28;5040410;28;20128;-73
2022/06/15 09:55:59;;;;;;;5.50;1.10;;;;;;;25.58;26.34;100885.03;5040106;28;20036;-73
2022/06/15 09:58:33;;;;;;;3.53;1.00;;;;;;;25.48;27.60;100883.88;5035759;28;20083;-72
2022/06/15 10:00:58;;;;;;;4.43;1.40;;;;;;;25.34;28.04;100879.34;5040092;28;20143;-73
2022/06/15 10:03:31;;;;;;;4.65;0.98;;;;;;;25.28;28.41;100887.81;5041349;28;20648;-72
2022/06/15 10:06:14;;;;;;;4.55;1.20;;;;;;;25.40;27.80;100880.78;5036192;28;20135;-73
2022/06/15 10:08:40;;;;;;;2.38;0.90;;;;;;;25.42;27.95;100878.88;5039106;28;20037;-73
2022/06/15 10:11:11;;;;;;;5.55;1.55;;;;;;;25.62;28.11;100872.19;5041696;28;20047;-73
2022/06/15 10:13:38;;;;;;;2.67;0.90;;;;;;;25.88;27.86;100865.13;5040740;28;20041;-73
2022/06/15 10:16:15;;;;;;;3.25;1.30;;;;;;;25.98;26.69;100866.28;5040413;28;20721;-73
2022/06/15 10:18:47;;;;;;;5.53;1.10;;;;;;;26.02;27.40;100867.81;5035521;28;20037;-73
2022/06/15 10:21:21;;;;;;;3.72;1.73;;;;;;;26.15;27.49;100862.47;5037864;28;20112;-73
2022/06/15 10:23:55;;;;;;;4.65;0.93;;;;;;;26.12;26.94;100868.06;5036859;28;20033;-73
2022/06/15 10:26:32;;;;;;;4.22;1.08;;;;;;;26.18;27.02;100863.13;5040740;28;20047;-73
2022/06/15 10:29:05;;;;;;;2.90;0.95;;;;;;;26.28;27.23;100854.38;5035365;28;20061;-73
2022/06/15 10:31:34;;;;;;;3.80;1.17;;;;;;;26.40;26.84;100862.53;5039866;28;20044;-73
2022/06/15 10:34:20;;;;;;;4.43;1.58;;;;;;;26.62;26.36;100853.91;5041563;28;20079;-73
2022/06/15 10:36:59;;;;;;;5.05;1.40;;;;;;;26.83;26.68;100856.97;5039935;28;20037;-73
2022/06/15 10:39:37;;;;;;;4.60;1.02;;;;;;;26.76;26.21;100858.34;5036892;28;20109;-73
2022/06/15 10:42:18;;;;;;;5.07;1.20;;;;;;;26.81;26.20;100855.34;5038278;28;20065;-73
2022/06/15 10:45:06;;;;;;;3.88;1.60;;;;;;;26.79;26.17;100857.28;5038916;28;20503;-73
2022/06/15 10:48:01;;;;;;;2.92;0.90;;;;;;;26.86;25.29;100848.63;5039014;28;20404;-73
2022/06/15 10:50:42;;;;;;;6.68;1.73;;;;;;;26.91;25.93;100842.91;5035876;28;20130;-73
2022/06/15 10:53:35;;;;;;;4.57;2.67;;;;;;;26.99;25.83;100848.63;5037357;28;20033;-73
2022/06/15 11:02:07;;;;;;;4.05;1.80;;;;;;;27.51;25.60;100839.53;5031600;28;20021;-73
2022/06/15 11:04:43;;;;;;;3.63;1.70;;;;;;;27.83;25.08;100828.22;5039836;28;20124;-73
2022/06/15 11:07:23;;;;;;;2.55;1.17;;;;;;;27.83;24.85;100828.22;5036408;28;20037;-73
2022/06/15 11:09:55;;;;;;;3.53;1.05;;;;;;;27.53;24.41;100826.72;5038740;28;20041;-73
2022/06/15 11:12:23;;;;;;;4.35;1.40;;;;;;;27.56;25.34;100830.19;5040420;28;20079;-73
2022/06/15 11:15:03;;;;;;;5.80;2.65;;;;;;;27.88;25.51;100823.31;5041283;28;20037;-73
2022/06/15 11:20:46;;;;;;;4.60;1.63;;;;;;;28.36;23.48;100815.16;5037547;28;20445;-73
2022/06/15 11:23:38;;;;;;;3.25;1.17;;;;;;;28.15;23.77;100814.09;5021784;28;20038;-73
2022/06/15 11:29:24;;;;;;;;;;;;;;;28.16;24.29;100819.41;5040426;28;20396;-73
2022/06/15 11:31:52;;;;;;;4.38;1.30;;;;;;;28.23;23.71;100817.09;5041966;28;19921;-73
2022/06/15 11:34:24;;;;;;;4.07;1.50;;;;;;;28.43;23.55;100810.16;5045136;28;20033;-73
2022/06/15 11:36:55;;;;;;;3.22;1.38;;;;;;;28.82;23.17;100810.78;5041717;28;20037;-73
2022/06/15 11:39:26;;;;;;;3.25;1.48;;;;;;;29.14;22.66;100804.69;5044204;28;20452;-73
2022/06/15 11:41:54;;;;;;;5.43;1.20;;;;;;;29.50;22.51;100806.25;5041125;28;20041;-73
2022/06/15 11:44:31;;;;;;;2.72;1.15;;;;;;;29.74;21.71;100797.13;5044227;28;20047;-73
2022/06/15 11:47:27;;;;;;;6.13;3.30;;;;;;;29.76;21.62;100806.03;5044956;28;20036;-73
2022/06/15 11:50:13;;;;;;;4.75;1.70;;;;;;;29.78;21.85;100802.19;5019076;28;20038;-73
2022/06/15 11:52:49;;;;;;;4.20;1.27;;;;;;;30.07;21.31;100794.31;5040662;28;20091;-73
2022/06/15 11:55:27;;;;;;;3.65;1.55;;;;;;;30.38;21.28;100785.44;5043147;28;20454;-73
2022/06/15 11:58:21;;;;;;;6.35;2.40;;;;;;;30.55;21.02;100785.72;5037987;28;20561;-72
2022/06/15 12:01:04;;;;;;;6.97;3.03;;;;;;;30.77;21.11;100792.03;5039124;28;20091;-73
2022/06/15 12:04:17;;;;;;;5.50;3.13;;;;;;;31.11;21.82;100783.63;5041193;28;20052;-73
2022/06/15 12:07:11;;;;;;;6.53;2.45;;;;;;;32.00;20.69;100776.50;5042801;28;20051;-73
2022/06/15 12:10:03;;;;;;;4.90;1.70;;;;;;;32.41;18.74;100777.22;5024371;28;20047;-73
2022/06/15 12:12:41;;;;;;;3.97;2.30;;;;;;;32.74;19.19;100781.34;5037208;28;20041;-73